Time;durP1;ratioP1;P1;durP2;ratioP2;P2;SDS_P1;SDS_P2;PMS_P1;PMS_P2;Temp;Humidity;BMP_temperature;BMP_pressure;BME280_temperature;BME280_humidity;BME280_pressure;Samples;Min_cycle;Max_cycle;Signal;HPM_P1;HPM_P2
2022/11/28 00:00:58;;;;;;;;;;;19.50;80.90;;;;;;6124912;23;19912;-65
2022/11/28 00:03:25;;;;;;;;;;;19.60;80.40;;;;;;6099253;23;19919;-65
2022/11/28 00:05:51;;;;;;;;;;;19.70;79.90;;;;;;6124918;23;19904;-65
2022/11/28 00:08:18;;;;;;;;;;;19.70;80.00;;;;;;6125103;23;19916;-65
2022/11/28 00:10:45;;;;;;;;;;;19.90;79.70;;;;;;6125007;23;19941;-65
2022/11/28 00:13:11;;;;;;;;;;;20.10;80.70;;;;;;6124844;23;19943;-65
2022/11/28 00:15:38;;;;;;;;;;;20.20;78.40;;;;;;6125377;23;19951;-65
2022/11/28 00:18:05;;;;;;;;;;;20.30;78.90;;;;;;6125300;23;19905;-66
2022/11/28 00:20:31;;;;;;;;;;;20.40;80.00;;;;;;6099217;23;19916;-65
2022/11/28 00:22:58;;;;;;;;;;;20.30;79.10;;;;;;6125622;23;19905;-65
2022/11/28 00:25:24;;;;;;;;;;;20.30;79.50;;;;;;6127068;23;19905;-65
2022/11/28 00:27:51;;;;;;;;;;;20.30;78.80;;;;;;6126590;23;20329;-65
2022/11/28 00:30:18;;;;;;;;;;;20.30;78.00;;;;;;6126517;23;20025;-65
2022/11/28 00:32:44;;;;;;;;;;;20.30;78.40;;;;;;6127005;23;19988;-66
2022/11/28 00:35:12;;;;;;;;;;;20.40;77.10;;;;;;6126448;23;20337;-65
2022/11/28 00:37:38;;;;;;;;;;;20.50;77.90;;;;;;6126723;23;19984;-65
2022/11/28 00:40:05;;;;;;;;;;;20.70;77.60;;;;;;6126480;23;19928;-65
2022/11/28 00:42:32;;;;;;;;;;;20.80;79.10;;;;;;6126514;23;19905;-66
2022/11/28 00:44:58;;;;;;;;;;;20.80;78.10;;;;;;6126455;23;20320;-65
2022/11/28 00:47:25;;;;;;;;;;;20.70;76.50;;;;;;6126178;23;19905;-65
2022/11/28 00:49:51;;;;;;;;;;;20.70;77.40;;;;;;6126391;23;19905;-66
2022/11/28 00:52:18;;;;;;;;;;;20.70;78.10;;;;;;6126325;23;20441;-65
2022/11/28 00:54:45;;;;;;;;;;;20.80;77.90;;;;;;6126592;23;19913;-65
2022/11/28 00:57:11;;;;;;;;;;;20.70;77.30;;;;;;6126537;23;19909;-65
2022/11/28 00:59:38;;;;;;;;;;;20.60;78.10;;;;;;6126948;23;19917;-65
2022/11/28 01:02:04;;;;;;;;;;;20.60;79.00;;;;;;6125681;23;20325;-65
2022/11/28 01:04:31;;;;;;;;;;;20.50;79.00;;;;;;6126373;23;19976;-65
2022/11/28 01:06:57;;;;;;;;;;;20.60;79.80;;;;;;6126577;23;19932;-65
2022/11/28 01:09:24;;;;;;;;;;;20.60;78.70;;;;;;6126032;23;19917;-65
2022/11/28 01:11:51;;;;;;;;;;;20.50;78.00;;;;;;6126500;23;19996;-65
2022/11/28 01:14:18;;;;;;;;;;;20.40;77.90;;;;;;6126218;23;19913;-65
2022/11/28 01:16:45;;;;;;;;;;;20.30;78.20;;;;;;6100333;23;19909;-65
2022/11/28 01:19:12;;;;;;;;;;;20.30;77.40;;;;;;6125952;23;20293;-65
2022/11/28 01:21:39;;;;;;;;;;;20.40;77.30;;;;;;6126336;23;19905;-65
2022/11/28 01:24:05;;;;;;;;;;;20.40;77.60;;;;;;6126018;23;19952;-65
2022/11/28 01:26:32;;;;;;;;;;;20.50;77.40;;;;;;6126595;23;19956;-65
2022/11/28 01:28:59;;;;;;;;;;;20.50;77.30;;;;;;6126346;23;20275;-65
2022/11/28 01:31:26;;;;;;;;;;;20.50;78.30;;;;;;6100147;23;19905;-66
2022/11/28 01:33:53;;;;;;;;;;;20.50;79.00;;;;;;6125758;23;19905;-66
2022/11/28 01:36:20;;;;;;;;;;;20.60;76.90;;;;;;6126374;23;19905;-65
2022/11/28 01:38:46;;;;;;;;;;;20.60;76.80;;;;;;6125865;23;19912;-66
2022/11/28 01:41:14;;;;;;;;;;;20.60;77.30;;;;;;6126166;23;19928;-65
2022/11/28 01:44:00;;;;;;;;;;;20.50;76.80;;;;;;6126315;23;20009;-65
2022/11/28 01:46:26;;;;;;;;;;;20.70;77.30;;;;;;6100573;23;19936;-66
2022/11/28 01:48:53;;;;;;;;;;;20.80;77.00;;;;;;6125993;23;19905;-65
2022/11/28 01:51:20;;;;;;;;;;;20.80;77.40;;;;;;6125886;23;19905;-65
2022/11/28 01:53:46;;;;;;;;;;;20.90;77.40;;;;;;6099975;23;19913;-66
2022/11/28 01:56:23;;;;;;;;;;;20.90;76.30;;;;;;6126271;23;19905;-66
2022/11/28 01:58:50;;;;;;;;;;;20.80;76.30;;;;;;6099973;23;19984;-66
2022/11/28 02:01:16;;;;;;;;;;;20.80;76.20;;;;;;6099888;23;19905;-65
2022/11/28 02:03:44;;;;;;;;;;;20.90;77.60;;;;;;6126147;23;19912;-65
2022/11/28 02:06:12;;;;;;;;;;;21.00;76.90;;;;;;6126082;23;20285;-66
2022/11/28 02:08:38;;;;;;;;;;;21.10;76.30;;;;;;6100060;23;19964;-66
2022/11/28 02:11:23;;;;;;;;;;;21.20;75.50;;;;;;6125715;23;19905;-66
2022/11/28 02:13:56;;;;;;;;;;;21.30;75.20;;;;;;6125732;23;20256;-66
2022/11/28 02:16:23;;;;;;;;;;;21.30;75.50;;;;;;6100072;23;19905;-65
2022/11/28 02:18:49;;;;;;;;;;;21.30;74.10;;;;;;6126106;23;19928;-65
2022/11/28 02:21:17;;;;;;;;;;;21.10;74.50;;;;;;6126056;23;19913;-65
2022/11/28 02:23:52;;;;;;;;;;;21.00;76.10;;;;;;6125681;23;20273;-65
2022/11/28 02:26:37;;;;;;;;;;;20.90;75.20;;;;;;6125552;23;19909;-65
2022/11/28 02:29:30;;;;;;;;;;;20.90;75.50;;;;;;6125383;23;19913;-65
2022/11/28 02:32:16;;;;;;;;;;;20.90;76.40;;;;;;6120258;23;19964;-65
2022/11/28 02:34:49;;;;;;;;;;;21.00;75.90;;;;;;6099610;23;19999;-65
2022/11/28 02:37:21;;;;;;;;;;;21.00;75.90;;;;;;6125707;23;19928;-65
2022/11/28 02:39:48;;;;;;;;;;;21.00;76.50;;;;;;6125086;23;19939;-65
2022/11/28 02:42:46;;;;;;;;;;;21.00;75.60;;;;;;6125731;23;19905;-64
2022/11/28 02:45:17;;;;;;;;;;;21.00;76.50;;;;;;6061294;23;19912;-64
2022/11/28 02:47:48;;;;;;;;;;;21.00;75.30;;;;;;6099585;23;21401;-65
2022/11/28 02:50:35;;;;;;;;;;;21.00;75.80;;;;;;6099749;23;19909;-65
2022/11/28 02:53:03;;;;;;;;;;;21.00;75.40;;;;;;6066074;23;19937;-66
2022/11/28 02:55:30;;;;;;;;;;;21.00;75.70;;;;;;6099266;23;19916;-65
2022/11/28 02:57:57;;;;;;;;;;;21.00;75.60;;;;;;6125424;23;20367;-65
2022/11/28 03:00:26;;;;;;;;;;;21.00;75.00;;;;;;6125407;23;19980;-66
2022/11/28 03:03:11;;;;;;;;;;;20.90;75.00;;;;;;6125201;23;19905;-65
2022/11/28 03:05:41;;;;;;;;;;;20.90;75.40;;;;;;6125555;23;19916;-66
2022/11/28 03:08:16;;;;;;;;;;;20.90;76.20;;;;;;6099066;23;20252;-66
2022/11/28 03:10:55;;;;;;;;;;;20.90;75.30;;;;;;6099485;23;19909;-66
2022/11/28 03:13:41;;;;;;;;;;;20.90;75.30;;;;;;6124785;23;19985;-65
2022/11/28 03:16:22;;;;;;;;;;;20.80;74.10;;;;;;6104583;23;19917;-65
2022/11/28 03:18:52;;;;;;;;;;;20.90;76.40;;;;;;6099551;23;19936;-65
2022/11/28 03:21:21;;;;;;;;;;;20.90;74.70;;;;;;6125055;23;19912;-65
2022/11/28 03:23:48;;;;;;;;;;;20.80;73.70;;;;;;6125144;23;19909;-66
2022/11/28 03:26:18;;;;;;;;;;;20.80;75.30;;;;;;6099629;23;19905;-65
2022/11/28 03:28:54;;;;;;;;;;;20.80;74.10;;;;;;6099242;23;19905;-66
2022/11/28 03:31:22;;;;;;;;;;;20.90;75.10;;;;;;6125451;23;20283;-65
2022/11/28 03:33:53;;;;;;;;;;;20.90;73.80;;;;;;6125190;23;19984;-66
2022/11/28 03:36:24;;;;;;;;;;;21.00;74.70;;;;;;6125141;23;19942;-65
2022/11/28 03:38:53;;;;;;;;;;;21.00;74.60;;;;;;6075365;23;19959;-65
2022/11/28 03:41:21;;;;;;;;;;;21.00;74.10;;;;;;6125165;23;19905;-65
2022/11/28 03:43:52;;;;;;;;;;;21.00;73.20;;;;;;6125475;23;19905;-66
2022/11/28 03:46:19;;;;;;;;;;;21.00;74.40;;;;;;6099184;23;19920;-65
2022/11/28 03:48:47;;;;;;;;;;;21.10;74.40;;;;;;6125059;23;19905;-66
2022/11/28 03:51:15;;;;;;;;;;;21.10;73.60;;;;;;6099299;23;19916;-66
2022/11/28 03:53:46;;;;;;;;;;;21.10;74.30;;;;;;6125052;23;19927;-66
2022/11/28 03:56:21;;;;;;;;;;;21.00;74.10;;;;;;6099513;23;19983;-66
2022/11/28 03:58:51;;;;;;;;;;;20.80;73.70;;;;;;6100887;23;19967;-65
2022/11/28 04:01:23;;;;;;;;;;;20.80;75.10;;;;;;6127385;23;19912;-65
2022/11/28 04:04:05;;;;;;;;;;;20.90;75.00;;;;;;6127051;23;20364;-66
2022/11/28 04:06:36;;;;;;;;;;;20.90;73.80;;;;;;6101130;23;19980;-66
2022/11/28 04:09:06;;;;;;;;;;;20.90;74.40;;;;;;6100972;23;19917;-65
2022/11/28 04:11:40;;;;;;;;;;;20.90;73.50;;;;;;6101292;23;19909;-65
2022/11/28 04:14:18;;;;;;;;;;;20.90;74.40;;;;;;6126226;23;19913;-65
2022/11/28 04:16:45;;;;;;;;;;;20.90;74.30;;;;;;6101191;23;19913;-65
2022/11/28 04:19:11;;;;;;;;;;;20.90;73.20;;;;;;6126847;23;19912;-66
2022/11/28 04:21:45;;;;;;;;;;;21.00;73.10;;;;;;6126481;23;19975;-66
2022/11/28 04:24:15;;;;;;;;;;;21.00;73.20;;;;;;6126695;23;19909;-65
2022/11/28 04:26:43;;;;;;;;;;;21.00;73.30;;;;;;6101317;23;19988;-66
2022/11/28 04:29:10;;;;;;;;;;;21.00;73.30;;;;;;6101517;23;20276;-66
2022/11/28 04:31:37;;;;;;;;;;;21.00;73.50;;;;;;6101288;23;20335;-65
2022/11/28 04:34:05;;;;;;;;;;;20.90;72.90;;;;;;6100787;23;19905;-66
2022/11/28 04:36:31;;;;;;;;;;;20.90;73.50;;;;;;6126521;23;19909;-65
2022/11/28 04:38:58;;;;;;;;;;;20.80;73.90;;;;;;6100180;23;20324;-66
2022/11/28 04:41:28;;;;;;;;;;;20.80;73.80;;;;;;6099882;23;20321;-66
2022/11/28 04:43:59;;;;;;;;;;;20.80;73.50;;;;;;6126109;23;19921;-65
2022/11/28 04:46:37;;;;;;;;;;;20.80;73.50;;;;;;6126153;23;19905;-66
2022/11/28 04:49:03;;;;;;;;;;;21.00;73.70;;;;;;6100694;23;20285;-64
2022/11/28 04:51:42;;;;;;;;;;;21.00;73.10;;;;;;6100247;23;20229;-65
2022/11/28 04:54:10;;;;;;;;;;;21.00;72.90;;;;;;6100441;23;19908;-63
2022/11/28 04:56:38;;;;;;;;;;;21.10;72.10;;;;;;6126418;23;19960;-63
2022/11/28 04:59:05;;;;;;;;;;;21.00;72.10;;;;;;6100541;23;19909;-63
2022/11/28 05:01:32;;;;;;;;;;;20.90;72.90;;;;;;6100659;23;20325;-63
2022/11/28 05:03:58;;;;;;;;;;;20.80;72.50;;;;;;6100453;23;19905;-63
2022/11/28 05:06:26;;;;;;;;;;;20.90;73.70;;;;;;6098715;23;19905;-63
2022/11/28 05:08:53;;;;;;;;;;;20.90;73.80;;;;;;6099459;23;19971;-63
2022/11/28 05:11:19;;;;;;;;;;;20.80;73.40;;;;;;6125678;23;19913;-63
2022/11/28 05:13:46;;;;;;;;;;;20.80;72.90;;;;;;6126443;23;20257;-63
2022/11/28 05:16:12;;;;;;;;;;;21.00;72.60;;;;;;6126016;23;19968;-63
2022/11/28 05:18:39;;;;;;;;;;;20.90;72.10;;;;;;6126013;23;19939;-63
2022/11/28 05:21:07;;;;;;;;;;;20.90;72.50;;;;;;6124910;23;19984;-63
2022/11/28 05:23:37;;;;;;;;;;;20.90;73.10;;;;;;6125591;23;19984;-63
2022/11/28 05:26:07;;;;;;;;;;;21.00;73.80;;;;;;6125455;23;19909;-63
2022/11/28 05:28:34;;;;;;;;;;;21.10;73.00;;;;;;6125447;23;19908;-63
2022/11/28 05:31:00;;;;;;;;;;;21.10;73.00;;;;;;6125407;23;19976;-63
2022/11/28 05:33:30;;;;;;;;;;;21.10;73.00;;;;;;6125304;23;19905;-63
2022/11/28 05:36:02;;;;;;;;;;;21.20;73.40;;;;;;6125808;23;19992;-63
2022/11/28 05:38:28;;;;;;;;;;;21.20;72.60;;;;;;6125888;23;19916;-63
2022/11/28 05:40:55;;;;;;;;;;;21.20;73.00;;;;;;6125770;23;19905;-63
2022/11/28 05:43:21;;;;;;;;;;;21.20;73.00;;;;;;6123892;23;19909;-65
2022/11/28 05:45:48;;;;;;;;;;;21.20;73.10;;;;;;6121630;23;19940;-66
2022/11/28 05:48:14;;;;;;;;;;;21.10;73.50;;;;;;6122368;23;19948;-65
2022/11/28 05:50:41;;;;;;;;;;;21.10;72.40;;;;;;6122428;23;19909;-66
2022/11/28 05:53:08;;;;;;;;;;;21.10;73.20;;;;;;6122736;23;19937;-66
2022/11/28 05:55:34;;;;;;;;;;;21.10;72.70;;;;;;6121921;23;19917;-66
2022/11/28 05:58:01;;;;;;;;;;;21.10;73.00;;;;;;6122658;23;19916;-65
2022/11/28 06:00:27;;;;;;;;;;;21.20;73.70;;;;;;6122755;23;19956;-64
2022/11/28 06:02:54;;;;;;;;;;;21.20;73.50;;;;;;6122735;23;19912;-65
2022/11/28 06:05:21;;;;;;;;;;;21.10;72.40;;;;;;6122462;23;19913;-66
2022/11/28 06:07:47;;;;;;;;;;;21.10;73.10;;;;;;6122560;23;19917;-65
2022/11/28 06:10:14;;;;;;;;;;;21.10;73.80;;;;;;6122741;23;19909;-66
2022/11/28 06:12:40;;;;;;;;;;;21.10;72.90;;;;;;6122365;23;20333;-66
2022/11/28 06:15:07;;;;;;;;;;;21.10;73.30;;;;;;6122041;23;20000;-66
2022/11/28 06:17:34;;;;;;;;;;;21.10;72.70;;;;;;6122474;23;19985;-66
2022/11/28 06:20:00;;;;;;;;;;;21.10;73.00;;;;;;6121849;23;19909;-66
2022/11/28 06:22:27;;;;;;;;;;;21.00;73.90;;;;;;6122790;23;20387;-66
2022/11/28 06:24:53;;;;;;;;;;;21.00;73.70;;;;;;6122282;23;19905;-66
2022/11/28 06:27:20;;;;;;;;;;;20.90;73.00;;;;;;6122641;23;19933;-66
2022/11/28 06:29:47;;;;;;;;;;;20.90;73.30;;;;;;6121915;23;20299;-66
2022/11/28 06:32:13;;;;;;;;;;;20.80;74.20;;;;;;6121930;23;19916;-66
2022/11/28 06:34:40;;;;;;;;;;;20.80;74.10;;;;;;6122705;23;19978;-65
2022/11/28 06:37:06;;;;;;;;;;;20.80;74.20;;;;;;6120082;23;19943;-65
2022/11/28 06:39:33;;;;;;;;;;;20.80;73.70;;;;;;6121819;23;19905;-65
2022/11/28 06:41:59;;;;;;;;;;;20.80;73.20;;;;;;6122020;23;19956;-66
2022/11/28 06:44:26;;;;;;;;;;;20.80;73.60;;;;;;6121737;23;19976;-66
2022/11/28 06:46:53;;;;;;;;;;;20.80;73.60;;;;;;6121956;23;19935;-66
2022/11/28 06:49:20;;;;;;;;;;;20.80;73.40;;;;;;6122092;23;20319;-65
2022/11/28 06:51:47;;;;;;;;;;;20.80;73.80;;;;;;6122559;23;19980;-66
2022/11/28 06:54:13;;;;;;;;;;;20.80;73.90;;;;;;6124050;23;20284;-66
2022/11/28 06:56:40;;;;;;;;;;;20.70;72.40;;;;;;6125325;23;19937;-66
2022/11/28 06:59:07;;;;;;;;;;;20.70;73.10;;;;;;6124650;23;20322;-66
2022/11/28 07:01:33;;;;;;;;;;;20.70;73.10;;;;;;6124907;23;19919;-66
2022/11/28 07:04:00;;;;;;;;;;;20.70;73.50;;;;;;6124828;23;19909;-66
2022/11/28 07:06:27;;;;;;;;;;;20.70;73.50;;;;;;6125286;23;20265;-66
2022/11/28 07:08:57;;;;;;;;;;;20.70;73.70;;;;;;6124401;23;19940;-66
2022/11/28 07:11:24;;;;;;;;;;;20.60;73.00;;;;;;6123286;23;19933;-66
2022/11/28 07:13:51;;;;;;;;;;;20.60;73.20;;;;;;6125458;23;19984;-66
2022/11/28 07:16:22;;;;;;;;;;;20.50;73.60;;;;;;6125257;23;20409;-67
2022/11/28 07:18:48;;;;;;;;;;;20.50;73.60;;;;;;6125000;23;19905;-66
2022/11/28 07:21:15;;;;;;;;;;;20.50;73.00;;;;;;6124888;23;20387;-66
2022/11/28 07:23:42;;;;;;;;;;;20.50;73.60;;;;;;6099025;23;20252;-66
2022/11/28 07:26:09;;;;;;;;;;;20.40;73.60;;;;;;6124479;23;19905;-66
2022/11/28 07:28:35;;;;;;;;;;;20.50;73.90;;;;;;6097301;23;19909;-66
2022/11/28 07:31:06;;;;;;;;;;;20.40;73.50;;;;;;6124218;23;19905;-66
2022/11/28 07:33:36;;;;;;;;;;;20.40;74.50;;;;;;6122570;23;19913;-66
2022/11/28 07:36:06;;;;;;;;;;;20.40;73.80;;;;;;6123302;23;19939;-65
2022/11/28 07:38:33;;;;;;;;;;;20.40;73.70;;;;;;6124111;23;19991;-66
2022/11/28 07:41:06;;;;;;;;;;;20.30;73.50;;;;;;6123644;23;19919;-66
2022/11/28 07:43:33;;;;;;;;;;;20.30;73.20;;;;;;6123916;23;19909;-66
2022/11/28 07:45:59;;;;;;;;;;;20.30;73.50;;;;;;6122516;23;19905;-66
2022/11/28 07:48:26;;;;;;;;;;;20.30;74.10;;;;;;6123636;23;19947;-65
2022/11/28 07:50:52;;;;;;;;;;;20.30;73.70;;;;;;6123750;23;19913;-64
2022/11/28 07:53:19;;;;;;;;;;;20.30;73.70;;;;;;6124079;23;20218;-65
2022/11/28 07:55:46;;;;;;;;;;;20.20;73.00;;;;;;6123393;23;19940;-66
2022/11/28 07:58:12;;;;;;;;;;;20.30;73.40;;;;;;6123639;23;19909;-66
2022/11/28 08:00:39;;;;;;;;;;;20.30;73.70;;;;;;6123749;23;19992;-65
2022/11/28 08:03:06;;;;;;;;;;;20.20;72.90;;;;;;6123898;23;20190;-66
2022/11/28 08:05:32;;;;;;;;;;;20.20;73.30;;;;;;6123605;23;19960;-66
2022/11/28 08:07:59;;;;;;;;;;;20.20;73.20;;;;;;6097344;23;19928;-66
2022/11/28 08:10:26;;;;;;;;;;;20.20;73.50;;;;;;6124005;23;19909;-65
2022/11/28 08:12:52;;;;;;;;;;;20.20;74.10;;;;;;6123860;23;19905;-65
2022/11/28 08:15:19;;;;;;;;;;;20.10;74.10;;;;;;6123900;23;19913;-66
2022/11/28 08:17:46;;;;;;;;;;;20.10;74.50;;;;;;6095829;23;20001;-66
2022/11/28 08:20:12;;;;;;;;;;;20.10;74.20;;;;;;6123453;23;20341;-68
2022/11/28 08:22:39;;;;;;;;;;;20.10;73.90;;;;;;6123445;23;19916;-65
2022/11/28 08:25:06;;;;;;;;;;;20.10;73.80;;;;;;6123463;23;19988;-65
2022/11/28 08:27:32;;;;;;;;;;;20.10;74.30;;;;;;6123744;23;19915;-63
2022/11/28 08:29:59;;;;;;;;;;;20.00;75.00;;;;;;6123586;23;19908;-64
2022/11/28 08:32:27;;;;;;;;;;;20.00;74.80;;;;;;6123248;23;19905;-63
2022/11/28 08:34:54;;;;;;;;;;;20.10;74.50;;;;;;6122919;23;19913;-63
2022/11/28 08:37:21;;;;;;;;;;;20.00;74.70;;;;;;6123529;23;19909;-64
2022/11/28 08:39:47;;;;;;;;;;;20.00;75.10;;;;;;6123483;23;19917;-63
2022/11/28 08:42:14;;;;;;;;;;;19.90;75.20;;;;;;6123160;23;19909;-63
2022/11/28 08:44:40;;;;;;;;;;;19.90;75.50;;;;;;6123098;23;19912;-64
2022/11/28 08:47:07;;;;;;;;;;;19.90;75.50;;;;;;6123767;23;19917;-63
2022/11/28 08:49:36;;;;;;;;;;;19.90;75.70;;;;;;6123088;23;19913;-65
2022/11/28 08:52:03;;;;;;;;;;;19.90;75.10;;;;;;6097531;23;19909;-65
2022/11/28 08:54:29;;;;;;;;;;;19.80;75.70;;;;;;6123309;23;19913;-63
2022/11/28 08:56:57;;;;;;;;;;;19.80;76.20;;;;;;6123423;23;19909;-64
2022/11/28 08:59:24;;;;;;;;;;;19.80;76.10;;;;;;6123624;23;19946;-65
2022/11/28 09:01:54;;;;;;;;;;;19.80;76.20;;;;;;6123609;23;19940;-65
2022/11/28 09:04:22;;;;;;;;;;;19.80;76.50;;;;;;6123072;23;19909;-64
2022/11/28 09:06:49;;;;;;;;;;;19.80;76.70;;;;;;6123187;23;19936;-65
2022/11/28 09:09:15;;;;;;;;;;;19.70;77.10;;;;;;6096657;23;20334;-63
2022/11/28 09:11:42;;;;;;;;;;;19.70;77.50;;;;;;6122994;23;19905;-64
2022/11/28 09:14:09;;;;;;;;;;;19.70;77.20;;;;;;6123181;23;19913;-62
2022/11/28 09:16:37;;;;;;;;;;;19.70;77.10;;;;;;6123294;23;19917;-64
2022/11/28 09:19:04;;;;;;;;;;;19.70;77.30;;;;;;6120015;23;19916;-64
2022/11/28 09:21:30;;;;;;;;;;;19.70;77.20;;;;;;6122553;23;20164;-65
2022/11/28 09:23:57;;;;;;;;;;;19.80;77.10;;;;;;6123033;23;20281;-65
2022/11/28 09:26:24;;;;;;;;;;;19.70;77.40;;;;;;6123374;23;20316;-65
2022/11/28 09:28:51;;;;;;;;;;;19.70;77.60;;;;;;6122819;23;20003;-65
2022/11/28 09:31:17;;;;;;;;;;;19.70;77.20;;;;;;6122618;23;19909;-66
2022/11/28 09:33:44;;;;;;;;;;;19.70;77.10;;;;;;6122379;23;19909;-65
2022/11/28 09:36:14;;;;;;;;;;;19.70;77.00;;;;;;6122467;23;20292;-64
2022/11/28 09:38:41;;;;;;;;;;;19.70;77.10;;;;;;6123084;23;19909;-64
2022/11/28 09:41:26;;;;;;;;;;;19.70;77.30;;;;;;6125652;23;19920;-64
2022/11/28 09:43:52;;;;;;;;;;;19.60;77.60;;;;;;6125609;23;19936;-64
2022/11/28 09:46:22;;;;;;;;;;;19.60;77.30;;;;;;6099777;23;19905;-64
2022/11/28 09:48:50;;;;;;;;;;;19.70;77.40;;;;;;6100007;23;19935;-64
2022/11/28 09:51:39;;;;;;;;;;;19.60;77.60;;;;;;6126134;23;19905;-64
2022/11/28 09:54:08;;;;;;;;;;;19.60;77.70;;;;;;6110498;23;20345;-63
2022/11/28 09:56:35;;;;;;;;;;;19.60;77.30;;;;;;6125718;23;20339;-64
2022/11/28 09:59:04;;;;;;;;;;;19.60;77.40;;;;;;6125891;23;19905;-64
2022/11/28 10:01:37;;;;;;;;;;;19.60;77.40;;;;;;6100455;23;20292;-64
2022/11/28 10:04:03;;;;;;;;;;;19.70;77.50;;;;;;6125477;23;19959;-64
2022/11/28 10:06:39;;;;;;;;;;;19.70;77.30;;;;;;6125765;23;19905;-64
2022/11/28 10:09:24;;;;;;;;;;;19.60;77.40;;;;;;6125801;23;19920;-64
2022/11/28 10:12:08;;;;;;;;;;;19.70;77.50;;;;;;6125680;23;19909;-64
2022/11/28 10:14:38;;;;;;;;;;;19.60;77.70;;;;;;6125523;23;20316;-64
2022/11/28 10:17:21;;;;;;;;;;;19.60;77.80;;;;;;6126006;23;19909;-64
2022/11/28 10:20:11;;;;;;;;;;;19.60;78.20;;;;;;6099914;23;19956;-64
2022/11/28 10:22:45;;;;;;;;;;;19.70;77.80;;;;;;6100215;23;19929;-64
2022/11/28 10:25:18;;;;;;;;;;;19.70;77.90;;;;;;6099711;23;20261;-64
2022/11/28 10:27:45;;;;;;;;;;;19.70;78.10;;;;;;6125983;23;19909;-64
2022/11/28 10:30:18;;;;;;;;;;;19.70;78.40;;;;;;6125633;23;19928;-64
2022/11/28 10:32:46;;;;;;;;;;;19.60;78.10;;;;;;6099729;23;20037;-64
2022/11/28 10:35:13;;;;;;;;;;;19.70;78.40;;;;;;6125609;23;19924;-64
2022/11/28 10:37:39;;;;;;;;;;;19.60;78.40;;;;;;6125628;23;19913;-64
2022/11/28 10:40:24;;;;;;;;;;;19.60;78.20;;;;;;6125240;23;19937;-64
2022/11/28 10:43:26;;;;;;;;;;;19.60;78.50;;;;;;6099451;23;19920;-64
2022/11/28 10:45:57;;;;;;;;;;;19.60;78.60;;;;;;6008001;23;19906;-64
2022/11/28 10:48:33;;;;;;;;;;;19.60;78.60;;;;;;6105973;23;19940;-64
2022/11/28 10:51:03;;;;;;;;;;;19.60;78.80;;;;;;6124983;23;19905;-64
2022/11/28 10:53:50;;;;;;;;;;;19.60;78.50;;;;;;6096757;23;19909;-64
2022/11/28 10:56:23;;;;;;;;;;;19.50;78.80;;;;;;6121746;23;19962;-64
2022/11/28 10:58:55;;;;;;;;;;;19.50;78.90;;;;;;6122195;23;19909;-64
2022/11/28 11:01:22;;;;;;;;;;;19.50;79.10;;;;;;6121893;23;19959;-64
2022/11/28 11:03:48;;;;;;;;;;;19.50;79.00;;;;;;6122568;23;19920;-64
2022/11/28 11:06:15;;;;;;;;;;;19.40;79.30;;;;;;6122390;23;20402;-64
2022/11/28 11:08:41;;;;;;;;;;;19.50;79.50;;;;;;6121946;23;19964;-64
2022/11/28 11:11:26;;;;;;;;;;;19.40;79.50;;;;;;6119211;23;19909;-64
2022/11/28 11:14:02;;;;;;;;;;;19.40;79.80;;;;;;6122828;23;19908;-64
2022/11/28 11:16:47;;;;;;;;;;;19.30;80.00;;;;;;6122151;23;19977;-64
2022/11/28 11:19:23;;;;;;;;;;;19.30;80.10;;;;;;6122520;23;20222;-64
2022/11/28 11:22:00;;;;;;;;;;;19.30;80.30;;;;;;6121854;23;20186;-64
2022/11/28 11:24:27;;;;;;;;;;;19.40;80.20;;;;;;6123083;23;20008;-64
2022/11/28 11:26:54;;;;;;;;;;;19.40;80.30;;;;;;6122104;23;19958;-64
2022/11/28 11:29:23;;;;;;;;;;;19.40;80.30;;;;;;6095860;23;20325;-64
2022/11/28 11:31:51;;;;;;;;;;;19.40;80.10;;;;;;6122598;23;19909;-64
2022/11/28 11:34:18;;;;;;;;;;;19.40;80.20;;;;;;6122157;23;19904;-64
2022/11/28 11:36:45;;;;;;;;;;;19.40;80.40;;;;;;6096051;23;19984;-64
2022/11/28 11:39:11;;;;;;;;;;;19.40;80.50;;;;;;6121825;23;19909;-64
2022/11/28 11:41:39;;;;;;;;;;;19.30;80.70;;;;;;6122006;23;19975;-64
2022/11/28 11:44:14;;;;;;;;;;;19.30;80.60;;;;;;6122483;23;19909;-64
2022/11/28 11:47:10;;;;;;;;;;;19.30;80.70;;;;;;6122118;23;19912;-64
2022/11/28 11:49:40;;;;;;;;;;;19.30;80.90;;;;;;6097481;23;19909;-64
2022/11/28 11:52:13;;;;;;;;;;;19.20;81.00;;;;;;6121616;23;20312;-64
2022/11/28 11:54:51;;;;;;;;;;;19.20;80.90;;;;;;6121970;23;19923;-64
2022/11/28 11:57:19;;;;;;;;;;;19.20;81.10;;;;;;6098409;23;19995;-64
2022/11/28 11:59:50;;;;;;;;;;;19.20;81.10;;;;;;6099366;23;20277;-64
2022/11/28 12:02:19;;;;;;;;;;;19.10;81.20;;;;;;6098269;23;19976;-64
2022/11/28 12:04:48;;;;;;;;;;;19.10;81.40;;;;;;6125035;23;19912;-65
2022/11/28 12:07:54;;;;;;;;;;;19.10;81.50;;;;;;6099100;23;19932;-64
2022/11/28 12:10:21;;;;;;;;;;;19.10;81.60;;;;;;6007088;23;19921;-64
2022/11/28 12:12:47;;;;;;;;;;;19.10;81.60;;;;;;5984156;23;20338;-64
2022/11/28 12:15:15;;;;;;;;;;;19.10;81.60;;;;;;6064658;23;19919;-64
2022/11/28 12:17:45;;;;;;;;;;;19.10;81.60;;;;;;6099661;23;19911;-64
2022/11/28 12:20:29;;;;;;;;;;;19.10;81.70;;;;;;6127025;23;19963;-64
2022/11/28 12:22:56;;;;;;;;;;;19.10;81.80;;;;;;6126803;23;19909;-64
2022/11/28 12:25:32;;;;;;;;;;;19.10;82.00;;;;;;6126962;23;19984;-64
2022/11/28 12:27:59;;;;;;;;;;;19.10;82.00;;;;;;6101001;23;20020;-64
2022/11/28 12:30:44;;;;;;;;;;;19.10;82.00;;;;;;6126544;23;19909;-64
2022/11/28 12:33:38;;;;;;;;;;;19.10;81.90;;;;;;6126905;23;20305;-64
2022/11/28 12:36:11;;;;;;;;;;;19.10;82.00;;;;;;6083393;23;19920;-64
2022/11/28 12:38:41;;;;;;;;;;;19.10;82.20;;;;;;6126855;23;19912;-64
2022/11/28 12:41:23;;;;;;;;;;;19.00;82.20;;;;;;6100820;23;20226;-64
2022/11/28 12:43:59;;;;;;;;;;;19.00;82.30;;;;;;6126660;23;19988;-64
2022/11/28 12:46:38;;;;;;;;;;;19.00;82.30;;;;;;6126500;23;19909;-64
2022/11/28 12:49:23;;;;;;;;;;;19.00;82.40;;;;;;6100995;23;20244;-64
2022/11/28 12:51:56;;;;;;;;;;;19.00;82.60;;;;;;6126376;23;19909;-64
2022/11/28 12:54:29;;;;;;;;;;;19.00;82.70;;;;;;6100786;23;19909;-64
2022/11/28 12:57:16;;;;;;;;;;;19.00;82.70;;;;;;6100659;23;20386;-64
2022/11/28 13:00:01;;;;;;;;;;;19.00;82.80;;;;;;6100821;23;19916;-64
2022/11/28 13:02:43;;;;;;;;;;;19.00;83.00;;;;;;6126150;23;19905;-65
2022/11/28 13:05:10;;;;;;;;;;;19.00;83.10;;;;;;6126492;23;20396;-64
2022/11/28 13:07:42;;;;;;;;;;;19.00;83.10;;;;;;6126379;23;19913;-64
2022/11/28 13:10:20;;;;;;;;;;;19.00;83.20;;;;;;6125955;23;20335;-65
2022/11/28 13:12:47;;;;;;;;;;;19.00;83.30;;;;;;6100301;23;19905;-64
2022/11/28 13:15:32;;;;;;;;;;;19.00;83.30;;;;;;6126515;23;19913;-64
2022/11/28 13:18:02;;;;;;;;;;;19.00;83.60;;;;;;6126588;23;19909;-64
2022/11/28 13:20:46;;;;;;;;;;;19.00;83.50;;;;;;6100539;23;19916;-64
2022/11/28 13:23:13;;;;;;;;;;;19.00;83.50;;;;;;6126529;23;19909;-65
2022/11/28 13:25:44;;;;;;;;;;;19.00;83.60;;;;;;6126619;23;20241;-65
2022/11/28 13:28:14;;;;;;;;;;;19.00;83.70;;;;;;6100189;23;20384;-65
2022/11/28 13:30:51;;;;;;;;;;;19.00;83.70;;;;;;6125988;23;20008;-65
2022/11/28 13:33:18;;;;;;;;;;;19.10;83.70;;;;;;6126430;23;19912;-64
2022/11/28 13:35:44;;;;;;;;;;;19.10;84.00;;;;;;6126387;23;19912;-64
2022/11/28 13:38:11;;;;;;;;;;;19.10;84.10;;;;;;6100302;23;19913;-64
2022/11/28 13:40:39;;;;;;;;;;;19.10;83.90;;;;;;6126428;23;19912;-64
2022/11/28 13:43:09;;;;;;;;;;;19.10;84.10;;;;;;6125944;23;19940;-65
2022/11/28 13:45:37;;;;;;;;;;;19.10;84.00;;;;;;6100904;23;19979;-65
2022/11/28 13:48:22;;;;;;;;;;;19.10;83.90;;;;;;6100593;23;19991;-65
2022/11/28 13:51:01;;;;;;;;;;;19.10;84.00;;;;;;6125881;23;20316;-64
2022/11/28 13:53:28;;;;;;;;;;;19.10;83.80;;;;;;6125945;23;19912;-65
2022/11/28 13:56:06;;;;;;;;;;;19.00;83.90;;;;;;6125889;23;19913;-64
2022/11/28 13:58:51;;;;;;;;;;;19.00;84.10;;;;;;6126279;23;20236;-64
2022/11/28 14:01:21;;;;;;;;;;;19.00;84.20;;;;;;6125832;23;19932;-65
2022/11/28 14:03:57;;;;;;;;;;;19.00;84.40;;;;;;6099983;23;19955;-64
2022/11/28 14:06:30;;;;;;;;;;;19.00;84.20;;;;;;6125899;23;19905;-65
2022/11/28 14:09:17;;;;;;;;;;;18.90;84.20;;;;;;6100068;23;19921;-65
2022/11/28 14:11:51;;;;;;;;;;;18.90;84.20;;;;;;6125443;23;20225;-65
2022/11/28 14:14:20;;;;;;;;;;;18.90;84.10;;;;;;6099558;23;19917;-65
2022/11/28 14:16:56;;;;;;;;;;;18.90;84.10;;;;;;6126161;23;19916;-64
2022/11/28 14:19:22;;;;;;;;;;;18.80;84.10;;;;;;6126148;23;19905;-64
2022/11/28 14:21:52;;;;;;;;;;;18.90;84.20;;;;;;6125493;23;19924;-64
2022/11/28 14:24:37;;;;;;;;;;;18.90;84.40;;;;;;6099939;23;19905;-64
2022/11/28 14:27:04;;;;;;;;;;;18.90;84.60;;;;;;6125766;23;19936;-64
2022/11/28 14:29:34;;;;;;;;;;;18.80;84.70;;;;;;6125396;23;20236;-64
2022/11/28 14:32:00;;;;;;;;;;;18.80;84.70;;;;;;6099332;23;20319;-64
2022/11/28 14:34:39;;;;;;;;;;;18.80;84.50;;;;;;6125265;23;19911;-64